TimeCDT,TemperatureF,Dew PointF,Humidity,Sea Level PressureIn,VisibilityMPH,Wind Direction,Wind SpeedMPH,Gust SpeedMPH,PrecipitationIn,Events,Conditions,WindDirDegrees,DateUTC
12:53 AM,78.1,57.0,48,30.00,10.0,NNE,9.2,-,N/A,,Scattered Clouds,30,2013-09-05 05:53:00
1:53 AM,78.1,59.0,52,30.00,10.0,ENE,8.1,-,N/A,,Clear,70,2013-09-05 06:53:00
2:53 AM,75.9,59.0,56,29.99,10.0,NE,8.1,-,N/A,,Clear,40,2013-09-05 07:53:00
3:53 AM,75.0,60.1,60,29.99,10.0,ENE,9.2,-,N/A,,Clear,60,2013-09-05 08:53:00
4:53 AM,73.9,60.1,62,29.99,10.0,NE,9.2,-,N/A,,Clear,50,2013-09-05 09:53:00
5:53 AM,73.9,60.1,62,30.00,10.0,ENE,8.1,-,N/A,,Clear,70,2013-09-05 10:53:00
6:53 AM,72.0,60.1,66,30.01,10.0,ENE,9.2,-,N/A,,Clear,70,2013-09-05 11:53:00
7:53 AM,73.0,61.0,66,30.03,10.0,ENE,6.9,-,N/A,,Clear,60,2013-09-05 12:53:00
8:53 AM,78.1,62.1,58,30.05,10.0,East,9.2,-,N/A,,Clear,90,2013-09-05 13:53:00
9:53 AM,84.0,64.0,51,30.05,10.0,ESE,8.1,-,N/A,,Clear,120,2013-09-05 14:53:00
10:53 AM,90.0,64.0,42,30.06,10.0,ESE,6.9,-,N/A,,Clear,110,2013-09-05 15:53:00
11:53 AM,93.0,64.0,38,30.05,10.0,South,6.9,-,N/A,,Clear,170,2013-09-05 16:53:00
12:53 PM,97.0,59.0,28,30.03,10.0,SSE,10.4,17.3,N/A,,Clear,150,2013-09-05 17:53:00
1:53 PM,97.0,57.9,27,30.01,10.0,Variable,5.8,-,N/A,,Mostly Cloudy,0,2013-09-05 18:53:00
2:53 PM,99.0,57.9,25,29.99,10.0,ESE,6.9,-,N/A,,Mostly Cloudy,110,2013-09-05 19:53:00
3:53 PM,99.0,57.0,25,29.97,10.0,East,10.4,-,N/A,,Clear,90,2013-09-05 20:53:00
4:53 PM,100.0,55.9,23,29.96,10.0,East,9.2,-,N/A,,Scattered Clouds,90,2013-09-05 21:53:00
5:53 PM,99.0,54.0,22,29.95,10.0,SE,10.4,-,N/A,,Clear,130,2013-09-05 22:53:00
6:53 PM,96.1,55.0,25,29.95,10.0,ESE,8.1,-,N/A,,Clear,110,2013-09-05 23:53:00
7:53 PM,93.0,55.0,28,29.95,10.0,East,10.4,-,N/A,,Clear,100,2013-09-06 00:53:00
8:53 PM,87.1,55.0,33,29.97,10.0,East,9.2,-,N/A,,Clear,100,2013-09-06 01:53:00
9:53 PM,84.9,54.0,34,29.99,10.0,ESE,9.2,-,N/A,,Clear,110,2013-09-06 02:53:00
10:53 PM,82.0,55.0,39,30.01,10.0,East,8.1,-,N/A,,Clear,100,2013-09-06 03:53:00
11:53 PM,80.1,55.9,43,30.01,10.0,East,8.1,-,N/A,,Clear,100,2013-09-06 04:53:00